createdAt,value
2019-05-06T00:01:33.987Z,60.55
2019-05-06T00:04:04.624Z,60.54
2019-05-06T00:06:34.561Z,60.25
2019-05-06T00:09:04.086Z,60.26
2019-05-06T00:11:34.673Z,60.24
2019-05-06T00:14:03.957Z,60.36
2019-05-06T00:16:34.758Z,60.27
2019-05-06T00:19:04.774Z,60.56
2019-05-06T00:21:35.296Z,60.33
2019-05-06T00:24:04.033Z,60.58
2019-05-06T00:26:57.384Z,60.82
2019-05-06T00:29:27.197Z,61.06
2019-05-06T00:31:55.663Z,60.89
2019-05-06T00:34:24.643Z,60.84
2019-05-06T00:36:54.513Z,60.86
2019-05-06T00:39:44.283Z,61.21
2019-05-06T00:42:36.088Z,61.32
2019-05-06T00:45:05.621Z,60.92
2019-05-06T00:47:34.185Z,60.86
2019-05-06T00:50:04.220Z,60.72
2019-05-06T00:52:33.967Z,60.87
2019-05-06T00:55:04.171Z,61.43
2019-05-06T00:57:44.876Z,61.79
2019-05-06T01:00:18.528Z,61.79
2019-05-06T01:02:47.012Z,62.29
2019-05-06T01:05:15.541Z,62.39
2019-05-06T01:07:44.294Z,61.73
2019-05-06T01:10:14.252Z,62.07
2019-05-06T01:12:46.338Z,62.34
2019-05-06T01:15:17.439Z,62.54
2019-05-06T01:17:46.203Z,62.05
2019-05-06T01:20:14.741Z,62.77
2019-05-06T01:22:43.749Z,62.69
2019-05-06T01:25:14.191Z,62.63
2019-05-06T01:27:44.443Z,62.17
2019-05-06T01:30:13.746Z,62.36
2019-05-06T01:32:43.577Z,62.48
2019-05-06T01:35:13.997Z,62.44
2019-05-06T01:37:44.309Z,62.96
2019-05-06T01:40:30.567Z,62.29
2019-05-06T01:43:03.921Z,62.70
2019-05-06T01:45:32.391Z,62.79
2019-05-06T01:48:00.869Z,62.89
2019-05-06T01:50:29.333Z,62.94
2019-05-06T01:52:58.025Z,63.84
2019-05-06T01:55:26.813Z,63.69
2019-05-06T01:57:55.301Z,62.94
2019-05-06T02:00:24.270Z,63.60
2019-05-06T02:02:54.601Z,63.77
2019-05-06T02:05:24.259Z,63.21
2019-05-06T02:07:54.878Z,63.87
2019-05-06T02:10:23.829Z,63.41
2019-05-06T02:12:54.066Z,64.01
2019-05-06T02:15:23.963Z,63.88
2019-05-06T02:17:54.979Z,63.37
2019-05-06T02:20:24.584Z,63.14
2019-05-06T02:23:04.203Z,63.68
2019-05-06T02:25:38.210Z,63.75
2019-05-06T02:28:06.684Z,64.30
2019-05-06T02:30:54.527Z,63.93
2019-05-06T02:33:28.961Z,64.17
2019-05-06T02:36:01.311Z,64.63
2019-05-06T02:38:39.273Z,64.97
2019-05-06T02:41:03.680Z,64.67
2019-05-06T02:43:34.504Z,64.27
2019-05-06T02:46:04.245Z,64.12
2019-05-06T02:48:55.612Z,64.54
2019-05-06T02:51:26.518Z,64.37
2019-05-06T02:53:55.284Z,64.41
2019-05-06T02:56:24.113Z,64.44
2019-05-06T02:58:53.625Z,64.59
2019-05-06T03:01:23.335Z,64.78
2019-05-06T03:03:53.651Z,64.86
2019-05-06T03:06:23.839Z,64.60
2019-05-06T03:08:54.195Z,64.96
2019-05-06T03:11:23.991Z,65.06
2019-05-06T03:13:53.889Z,65.03
2019-05-06T03:16:23.752Z,65.17
2019-05-06T03:18:53.311Z,64.94
2019-05-06T03:21:44.805Z,66.00
2019-05-06T03:24:29.375Z,66.05
2019-05-06T03:26:57.869Z,65.20
2019-05-06T03:29:26.331Z,64.98
2019-05-06T03:31:56.470Z,65.43
2019-05-06T03:34:49.301Z,65.43
2019-05-06T03:36:56.380Z,65.41
2019-05-06T03:39:25.266Z,65.16
2019-05-06T03:41:54.360Z,65.70
2019-05-06T03:44:23.977Z,65.70
2019-05-06T03:47:15.041Z,65.49
2019-05-06T03:49:49.791Z,65.46
2019-05-06T03:52:16.261Z,65.60
2019-05-06T03:54:45.885Z,65.25
2019-05-06T03:57:14.538Z,65.64
2019-05-06T03:59:43.677Z,65.31
2019-05-06T04:02:13.354Z,65.94
2019-05-06T04:04:44.034Z,65.30
2019-05-06T04:07:13.869Z,65.48
2019-05-06T04:09:44.200Z,65.65
2019-05-06T04:12:13.063Z,65.66
2019-05-06T04:14:43.343Z,65.62
2019-05-06T04:17:24.007Z,66.06
2019-05-06T04:19:56.917Z,65.63
2019-05-06T04:22:37.925Z,65.42
2019-05-06T04:25:14.288Z,65.79
2019-05-06T04:28:04.629Z,65.29
2019-05-06T04:30:33.496Z,66.14
2019-05-06T04:33:03.257Z,66.83
2019-05-06T04:35:33.823Z,66.45
2019-05-06T04:38:03.282Z,66.94
2019-05-06T04:40:33.083Z,66.24
2019-05-06T04:43:03.540Z,66.28
2019-05-06T04:45:33.755Z,66.05
2019-05-06T04:48:03.503Z,66.60
2019-05-06T04:50:33.099Z,66.00
2019-05-06T04:53:05.655Z,65.80
2019-05-06T04:55:34.789Z,65.64
2019-05-06T04:58:04.453Z,65.56
2019-05-06T05:00:33.306Z,65.64
2019-05-06T05:03:03.009Z,65.48
2019-05-06T05:05:33.158Z,65.67
2019-05-06T05:08:02.606Z,65.79
2019-05-06T05:11:05.355Z,66.77
2019-05-06T05:13:53.217Z,65.46
2019-05-06T05:16:45.993Z,65.46
2019-05-06T05:19:14.738Z,66.07
2019-05-06T05:21:43.224Z,65.63
2019-05-06T05:24:12.058Z,65.72
2019-05-06T05:26:43.338Z,65.69
2019-05-06T05:29:12.350Z,65.89
2019-05-06T05:31:40.900Z,66.67
2019-05-06T05:34:09.382Z,65.68
2019-05-06T05:36:37.842Z,66.03
2019-05-06T05:39:07.420Z,65.46
2019-05-06T05:41:35.927Z,65.33
2019-05-06T05:44:11.907Z,65.61
2019-05-06T05:46:40.026Z,65.28
2019-05-06T05:49:18.396Z,65.30
2019-05-06T05:51:45.802Z,65.24
2019-05-06T05:54:14.270Z,65.46
2019-05-06T05:56:43.179Z,65.50
2019-05-06T05:59:12.265Z,65.89
2019-05-06T06:01:43.279Z,65.58
2019-05-06T06:04:12.871Z,65.50
2019-05-06T06:06:42.350Z,65.28
2019-05-06T06:09:12.686Z,65.54
2019-05-06T06:11:53.155Z,65.44
2019-05-06T06:14:53.384Z,65.49
2019-05-06T06:17:33.054Z,65.62
2019-05-06T06:20:04.083Z,65.71
2019-05-06T06:22:33.088Z,65.66
2019-05-06T06:25:04.088Z,65.85
2019-05-06T06:27:48.227Z,65.61
2019-05-06T06:30:16.721Z,65.65
2019-05-06T06:32:45.202Z,65.60
2019-05-06T06:35:25.139Z,65.61
2019-05-06T06:38:08.879Z,65.75
2019-05-06T06:40:37.665Z,65.98
2019-05-06T06:43:12.307Z,65.84
2019-05-06T06:45:42.190Z,65.81
2019-05-06T06:48:12.373Z,65.84
2019-05-06T06:50:42.632Z,65.72
2019-05-06T06:53:12.310Z,65.62
2019-05-06T06:55:42.726Z,65.59
2019-05-06T06:58:29.189Z,65.60
2019-05-06T07:01:17.188Z,65.71
2019-05-06T07:03:53.369Z,65.64
2019-05-06T07:06:36.899Z,65.67
2019-05-06T07:09:06.233Z,65.80
2019-05-06T07:11:34.711Z,65.68
2019-05-06T07:14:03.176Z,65.72
2019-05-06T07:16:32.776Z,65.50
2019-05-06T07:19:03.127Z,65.46
2019-05-06T07:21:39.434Z,65.32
2019-05-06T07:24:08.244Z,65.43
2019-05-06T07:26:42.730Z,65.17
2019-05-06T07:29:17.245Z,65.04
2019-05-06T07:31:42.647Z,65.02
2019-05-06T07:34:11.982Z,64.92
2019-05-06T07:36:42.964Z,64.98
2019-05-06T07:39:14.742Z,64.53
2019-05-06T07:41:49.322Z,64.34
2019-05-06T07:44:42.892Z,64.16
2019-05-06T07:47:23.766Z,64.19
2019-05-06T07:49:53.120Z,64.08
2019-05-06T07:52:23.096Z,63.90
2019-05-06T07:54:53.372Z,63.78
2019-05-06T07:57:22.172Z,64.08
2019-05-06T07:59:52.533Z,64.29
2019-05-06T08:02:22.978Z,64.57
2019-05-06T08:04:52.946Z,64.80
2019-05-06T08:07:22.313Z,64.79
2019-05-06T08:09:52.883Z,64.96
2019-05-06T08:12:22.312Z,65.25
2019-05-06T08:14:52.362Z,65.88
2019-05-06T08:17:34.127Z,66.28
2019-05-06T08:20:03.188Z,66.33
2019-05-06T08:22:52.976Z,66.45
2019-05-06T08:25:22.950Z,67.29
2019-05-06T08:27:53.185Z,67.38
2019-05-06T08:30:23.117Z,67.79
2019-05-06T08:32:52.846Z,67.28
2019-05-06T08:35:22.731Z,67.11
2019-05-06T08:37:53.109Z,67.21
2019-05-06T08:40:23.032Z,66.88
2019-05-06T08:42:53.198Z,66.77
2019-05-06T08:45:22.094Z,66.68
2019-05-06T08:47:52.389Z,66.08
2019-05-06T08:50:27.421Z,65.79
2019-05-06T08:53:05.834Z,65.78
2019-05-06T08:55:36.937Z,65.92
2019-05-06T08:58:05.436Z,65.77
2019-05-06T09:00:36.833Z,65.88
2019-05-06T09:03:05.343Z,65.53
2019-05-06T09:05:33.760Z,65.61
2019-05-06T09:08:03.588Z,65.39
2019-05-06T09:10:32.648Z,65.55
2019-05-06T09:13:02.044Z,65.61
2019-05-06T09:15:32.736Z,65.49
2019-05-06T09:18:02.973Z,65.25
2019-05-06T09:20:32.626Z,65.19
2019-05-06T09:23:04.489Z,64.97
2019-05-06T09:25:32.282Z,64.94
2019-05-06T09:28:15.969Z,64.86
2019-05-06T09:30:48.032Z,65.07
2019-05-06T09:33:19.116Z,67.01
2019-05-06T09:35:47.599Z,68.17
2019-05-06T09:38:16.633Z,68.22
2019-05-06T09:40:45.723Z,71.59
2019-05-06T09:43:14.205Z,69.47
2019-05-06T09:45:42.757Z,69.52
2019-05-06T09:48:17.518Z,70.56
2019-05-06T09:50:47.397Z,70.82
2019-05-06T09:53:20.087Z,69.95
2019-05-06T09:56:06.388Z,69.86
2019-05-06T09:58:37.271Z,69.23
2019-05-06T10:01:05.979Z,68.88
2019-05-06T10:03:34.463Z,68.87
2019-05-06T10:06:02.932Z,69.24
2019-05-06T10:08:32.286Z,69.52
2019-05-06T10:11:02.903Z,70.08
2019-05-06T10:13:32.715Z,71.98
2019-05-06T10:16:03.027Z,69.82
2019-05-06T10:18:31.846Z,70.67
2019-05-06T10:21:00.767Z,69.87
2019-05-06T10:23:29.264Z,70.78
2019-05-06T10:25:58.055Z,69.82
2019-05-06T10:28:35.375Z,69.47
2019-05-06T10:31:05.942Z,69.25
2019-05-06T10:33:34.426Z,69.09
2019-05-06T10:36:03.977Z,68.78
2019-05-06T10:38:55.591Z,68.69
2019-05-06T10:41:27.697Z,67.98
2019-05-06T10:44:22.576Z,67.98
2019-05-06T10:46:52.728Z,67.49
2019-05-06T10:49:22.559Z,66.92
2019-05-06T10:51:59.389Z,66.86
2019-05-06T10:54:27.853Z,66.55
2019-05-06T10:57:02.285Z,66.16
2019-05-06T10:59:32.643Z,66.60
2019-05-06T11:02:08.164Z,66.54
2019-05-06T11:04:36.625Z,65.84
2019-05-06T11:07:05.085Z,65.86
2019-05-06T11:09:33.850Z,65.68
2019-05-06T11:12:03.318Z,66.97
2019-05-06T11:14:32.888Z,67.79
2019-05-06T11:17:04.922Z,68.42
2019-05-06T11:19:33.062Z,69.26
2019-05-06T11:22:03.634Z,68.36
2019-05-06T11:24:32.680Z,68.52
2019-05-06T11:27:03.380Z,68.79
2019-05-06T11:29:33.915Z,69.36
2019-05-06T11:32:23.660Z,69.36
2019-05-06T11:34:57.978Z,69.83
2019-05-06T11:37:50.205Z,69.75
2019-05-06T11:40:16.955Z,70.07
2019-05-06T11:42:45.736Z,70.11
2019-05-06T11:45:14.213Z,70.00
2019-05-06T11:47:42.798Z,68.92
2019-05-06T11:50:12.918Z,68.95
2019-05-06T11:52:43.327Z,67.93
2019-05-06T11:55:16.872Z,67.33
2019-05-06T11:57:44.717Z,66.93
2019-05-06T12:00:17.202Z,67.22
2019-05-06T12:02:48.616Z,67.74
2019-05-06T12:05:15.943Z,67.85
2019-05-06T12:08:00.425Z,66.20
2019-05-06T12:10:14.604Z,65.96
2019-05-06T12:12:43.324Z,62.68
2019-05-06T12:15:12.609Z,65.94
2019-05-06T12:17:42.135Z,66.01
2019-05-06T12:20:13.083Z,66.52
2019-05-06T12:22:42.333Z,66.52
2019-05-06T12:25:14.693Z,66.31
2019-05-06T12:27:44.377Z,66.24
2019-05-06T12:30:14.029Z,65.90
2019-05-06T12:32:48.725Z,65.99
2019-05-06T12:35:17.182Z,66.32
2019-05-06T12:37:47.371Z,66.12
2019-05-06T12:40:15.839Z,66.38
2019-05-06T12:42:53.525Z,65.77
2019-05-06T12:45:34.728Z,63.75
2019-05-06T12:48:05.590Z,64.52
2019-05-06T12:50:34.035Z,65.55
2019-05-06T12:53:02.498Z,66.37
2019-05-06T12:55:33.457Z,67.22
2019-05-06T12:58:02.995Z,67.13
2019-05-06T13:00:33.169Z,67.20
2019-05-06T13:03:02.285Z,67.71
2019-05-06T13:05:31.949Z,67.64
2019-05-06T13:08:05.505Z,67.82
2019-05-06T13:10:33.501Z,68.07
2019-05-06T13:13:05.200Z,68.23
2019-05-06T13:15:33.991Z,66.38
2019-05-06T13:18:07.040Z,65.21
2019-05-06T13:20:34.295Z,64.89
2019-05-06T13:23:18.905Z,63.21
2019-05-06T13:25:45.156Z,62.31
2019-05-06T13:28:12.939Z,63.06
2019-05-06T13:30:43.339Z,62.96
2019-05-06T13:33:18.845Z,62.85
2019-05-06T13:35:47.405Z,62.81
2019-05-06T13:38:16.116Z,62.06
2019-05-06T13:40:53.849Z,61.56
2019-05-06T13:43:39.754Z,61.33
2019-05-06T13:46:28.032Z,59.99
2019-05-06T13:49:14.072Z,60.60
2019-05-06T13:51:46.891Z,60.56
2019-05-06T13:54:16.148Z,60.42
2019-05-06T13:56:44.670Z,58.69
2019-05-06T13:59:13.391Z,57.49
2019-05-06T14:02:06.127Z,60.38
2019-05-06T14:04:32.649Z,60.24
2019-05-06T14:07:03.419Z,59.66
2019-05-06T14:09:37.236Z,58.12
2019-05-06T14:12:02.640Z,60.46
2019-05-06T14:14:32.235Z,59.27
2019-05-06T14:17:00.838Z,60.14
2019-05-06T14:19:29.340Z,59.08
2019-05-06T14:21:57.828Z,58.18
2019-05-06T14:24:26.726Z,58.33
2019-05-06T14:26:59.658Z,59.60
2019-05-06T14:29:33.121Z,59.91
2019-05-06T14:32:01.969Z,56.87
2019-05-06T14:34:32.494Z,59.27
2019-05-06T14:37:00.707Z,58.51
2019-05-06T14:39:49.112Z,58.45
2019-05-06T14:42:04.319Z,58.32
2019-05-06T14:44:32.946Z,57.32
2019-05-06T14:47:06.087Z,50.33
2019-05-06T14:49:34.800Z,56.78
2019-05-06T14:52:03.266Z,57.18
2019-05-06T14:54:33.088Z,55.10
2019-05-06T14:57:12.366Z,56.79
2019-05-06T14:59:42.182Z,56.08
2019-05-06T15:02:13.083Z,56.30
2019-05-06T15:04:43.483Z,57.10
2019-05-06T15:07:12.676Z,56.82
2019-05-06T15:09:55.695Z,56.79
2019-05-06T15:12:13.057Z,56.20
2019-05-06T15:14:42.539Z,56.96
2019-05-06T15:17:11.202Z,52.60
2019-05-06T15:19:39.938Z,56.25
2019-05-06T15:22:08.427Z,54.29
2019-05-06T15:24:36.930Z,56.06
2019-05-06T15:27:05.674Z,55.46
2019-05-06T15:29:34.108Z,56.25
2019-05-06T15:32:22.194Z,56.52
2019-05-06T15:35:12.870Z,56.61
2019-05-06T15:37:49.070Z,56.07
2019-05-06T15:40:31.130Z,55.69
2019-05-06T15:42:47.782Z,55.88
2019-05-06T15:45:16.238Z,55.63
2019-05-06T15:47:45.200Z,55.57
2019-05-06T15:50:14.913Z,55.61
2019-05-06T15:52:43.812Z,55.97
2019-05-06T15:55:12.404Z,55.49
2019-05-06T15:57:43.265Z,55.66
2019-05-06T16:00:13.021Z,55.23
2019-05-06T16:02:42.041Z,56.21
2019-05-06T16:05:14.061Z,56.43
2019-05-06T16:07:43.350Z,56.63
2019-05-06T16:10:13.310Z,56.70
2019-05-06T16:12:43.876Z,56.71
2019-05-06T16:15:12.949Z,56.99
2019-05-06T16:17:42.673Z,56.97
2019-05-06T16:20:12.936Z,57.05
2019-05-06T16:22:44.400Z,57.13
2019-05-06T16:25:13.881Z,57.24
2019-05-06T16:27:44.128Z,56.19
2019-05-06T16:30:14.604Z,56.64
2019-05-06T16:32:43.426Z,57.02
2019-05-06T16:35:14.143Z,57.01
2019-05-06T16:37:42.216Z,56.87
2019-05-06T16:40:12.340Z,56.95
2019-05-06T16:42:42.564Z,56.90
2019-05-06T16:45:12.550Z,56.90
2019-05-06T16:47:44.512Z,56.94
2019-05-06T16:50:13.413Z,56.63
2019-05-06T16:52:44.865Z,56.79
2019-05-06T16:55:17.646Z,56.94
2019-05-06T16:57:52.535Z,56.49
2019-05-06T17:00:22.790Z,56.01
2019-05-06T17:03:00.869Z,54.92
2019-05-06T17:05:44.390Z,56.01
2019-05-06T17:08:12.894Z,55.69
2019-05-06T17:10:43.303Z,55.43
2019-05-06T17:13:12.653Z,55.53
2019-05-06T17:15:41.244Z,55.51
2019-05-06T17:18:09.686Z,55.67
2019-05-06T17:20:38.134Z,55.01
2019-05-06T17:23:06.601Z,55.57
2019-05-06T17:25:35.044Z,56.00
2019-05-06T17:28:25.961Z,56.06
2019-05-06T17:31:03.866Z,56.01
2019-05-06T17:33:37.397Z,55.78
2019-05-06T17:36:06.999Z,55.72
2019-05-06T17:38:41.911Z,55.55
2019-05-06T17:41:12.308Z,55.21
2019-05-06T17:43:41.386Z,55.26
2019-05-06T17:46:12.672Z,55.15
2019-05-06T17:48:52.842Z,55.23
2019-05-06T17:51:25.406Z,54.99
2019-05-06T17:53:54.305Z,54.99
2019-05-06T17:56:22.836Z,54.93
2019-05-06T17:58:53.179Z,54.92
2019-05-06T18:01:26.818Z,54.79
2019-05-06T18:03:55.305Z,54.36
2019-05-06T18:06:23.773Z,54.99
2019-05-06T18:08:52.878Z,55.14
2019-05-06T18:11:22.408Z,55.15
2019-05-06T18:13:52.150Z,55.29
2019-05-06T18:16:22.236Z,55.40
2019-05-06T18:18:52.351Z,55.44
2019-05-06T18:21:22.935Z,55.48
2019-05-06T18:23:52.275Z,55.49
2019-05-06T18:26:22.978Z,55.60
2019-05-06T18:28:52.700Z,55.71
2019-05-06T18:31:22.137Z,55.79
2019-05-06T18:33:52.811Z,55.80
2019-05-06T18:36:22.682Z,56.03
2019-05-06T18:38:52.590Z,56.00
2019-05-06T18:41:23.409Z,56.02
2019-05-06T18:43:53.547Z,55.92
2019-05-06T18:46:21.655Z,55.67
2019-05-06T18:48:52.455Z,55.71
2019-05-06T18:51:22.433Z,55.76
2019-05-06T18:53:52.408Z,55.59
2019-05-06T18:56:22.383Z,55.56
2019-05-06T18:58:52.989Z,55.59
2019-05-06T19:01:23.281Z,55.76
2019-05-06T19:03:58.808Z,55.74
2019-05-06T19:06:27.292Z,55.73
2019-05-06T19:09:07.345Z,55.80
2019-05-06T19:11:35.815Z,55.85
2019-05-06T19:14:04.254Z,55.87
2019-05-06T19:16:48.251Z,55.99
2019-05-06T19:19:05.864Z,55.90
2019-05-06T19:21:33.158Z,56.10
2019-05-06T19:24:02.830Z,56.14
2019-05-06T19:26:32.671Z,56.06
2019-05-06T19:29:04.379Z,56.20
2019-05-06T19:31:32.250Z,56.38
2019-05-06T19:34:03.187Z,56.43
2019-05-06T19:36:34.152Z,56.47
2019-05-06T19:39:02.268Z,56.57
2019-05-06T19:41:33.161Z,56.68
2019-05-06T19:44:02.211Z,56.72
2019-05-06T19:46:32.571Z,56.80
2019-05-06T19:49:01.824Z,56.89
2019-05-06T19:51:32.868Z,56.93
2019-05-06T19:54:02.245Z,57.02
2019-05-06T19:56:30.745Z,57.10
2019-05-06T19:58:59.532Z,57.13
2019-05-06T20:01:27.985Z,57.25
2019-05-06T20:03:56.476Z,57.31
2019-05-06T20:06:42.673Z,57.33
2019-05-06T20:09:45.560Z,57.38
2019-05-06T20:12:29.784Z,57.40
2019-05-06T20:15:17.311Z,57.48
2019-05-06T20:17:46.046Z,57.55
2019-05-06T20:20:14.513Z,57.68
2019-05-06T20:22:43.161Z,57.73
2019-05-06T20:25:12.513Z,57.77
2019-05-06T20:27:42.113Z,57.87
2019-05-06T20:30:10.849Z,57.86
2019-05-06T20:32:39.532Z,57.96
2019-05-06T20:35:08.098Z,58.06
2019-05-06T20:37:36.572Z,58.03
2019-05-06T20:40:05.272Z,58.01
2019-05-06T20:42:33.973Z,58.04
2019-05-06T20:45:02.453Z,58.20
2019-05-06T20:47:32.010Z,58.25
2019-05-06T20:50:02.334Z,58.43
2019-05-06T20:52:33.070Z,58.58
2019-05-06T20:55:02.894Z,58.65
2019-05-06T20:57:31.421Z,58.71
2019-05-06T20:59:59.905Z,58.97
2019-05-06T21:02:28.462Z,59.85
2019-05-06T21:04:56.928Z,60.10
2019-05-06T21:07:25.397Z,61.45
2019-05-06T21:09:53.870Z,60.88
2019-05-06T21:12:22.342Z,60.88
2019-05-06T21:14:50.797Z,60.88
2019-05-06T21:17:19.506Z,60.94
2019-05-06T21:19:47.988Z,60.66
2019-05-06T21:22:16.425Z,60.72
2019-05-06T21:24:44.908Z,61.01
2019-05-06T21:27:13.375Z,60.98
2019-05-06T21:29:42.190Z,61.11
2019-05-06T21:32:10.596Z,61.24
2019-05-06T21:34:39.080Z,61.44
2019-05-06T21:37:07.549Z,61.83
2019-05-06T21:39:36.028Z,61.66
2019-05-06T21:42:04.509Z,61.46
2019-05-06T21:44:33.009Z,61.49
2019-05-06T21:47:02.945Z,61.50
2019-05-06T21:49:32.671Z,61.71
2019-05-06T21:52:02.201Z,61.71
2019-05-06T21:54:32.729Z,62.08
2019-05-06T21:57:02.902Z,61.88
2019-05-06T21:59:31.882Z,61.96
2019-05-06T22:02:00.744Z,61.79
2019-05-06T22:04:29.201Z,61.95
2019-05-06T22:06:57.943Z,61.81
2019-05-06T22:09:26.410Z,61.59
2019-05-06T22:11:54.888Z,61.73
2019-05-06T22:14:23.378Z,61.95
2019-05-06T22:16:51.862Z,61.90
2019-05-06T22:19:20.360Z,61.85
2019-05-06T22:22:03.179Z,61.85
2019-05-06T22:24:47.892Z,61.95
2019-05-06T22:27:16.522Z,62.07
2019-05-06T22:29:45.006Z,62.20
2019-05-06T22:32:14.966Z,62.18
2019-05-06T22:34:43.583Z,62.18
2019-05-06T22:37:12.720Z,62.48
2019-05-06T22:39:43.495Z,62.13
2019-05-06T22:42:11.574Z,62.23
2019-05-06T22:44:40.049Z,62.18
2019-05-06T22:47:08.536Z,62.20
2019-05-06T22:49:37.242Z,62.40
2019-05-06T22:52:05.701Z,62.51
2019-05-06T22:54:34.198Z,62.97
2019-05-06T22:57:02.658Z,62.62
2019-05-06T22:59:32.980Z,62.67
2019-05-06T23:02:26.436Z,62.79
2019-05-06T23:04:57.565Z,63.02
2019-05-06T23:07:26.034Z,62.98
2019-05-06T23:09:54.504Z,63.33
2019-05-06T23:12:23.211Z,63.29
2019-05-06T23:14:52.800Z,63.35
2019-05-06T23:17:21.425Z,63.38
2019-05-06T23:19:49.898Z,63.40
2019-05-06T23:22:18.362Z,63.44
2019-05-06T23:24:46.848Z,63.81
2019-05-06T23:27:15.402Z,63.55
2019-05-06T23:29:45.049Z,63.41
2019-05-06T23:32:14.122Z,63.18
2019-05-06T23:34:43.228Z,63.78
2019-05-06T23:37:22.507Z,63.69
2019-05-06T23:40:34.414Z,63.64
2019-05-06T23:43:39.169Z,63.79
2019-05-06T23:46:44.049Z,63.67
2019-05-06T23:49:49.454Z,63.87
2019-05-06T23:52:54.550Z,63.84
2019-05-06T23:55:59.274Z,63.60
2019-05-06T23:58:26.600Z,63.88
